Alexandria, IN

8:30 AM EST on December 21, 2014 (GMT -0500)
Linwood, IN | Change Station
CLOSE
Current Station
Personal Weather Station
Location: Anderson, IN
Elevation: 895 ft
Nearby Weather Stations

Elev 895 ft 40.19 °N, 85.69 °W | Updated 4 seconds ago

Partly Cloudy
Partly Cloudy
23.8 °F
Feels Like 24 °F
N
2.0
Wind Variable Wind from South
Gusts 2.0 mph

Today
High -- | Low -- °F
--% Chance of Precip.
Yesterday
High -- | Low -- °F
Precip. -- in
8:01 AM 5:19 PM
Waning Crescent, 0% visible
Pressure 30.31 in
Visibility 4.0 miles
Clouds Clear
Windchill 24 °F
Dew Point 21 °F
Humidity 89%
Rainfall 0.00 in
Snow Depth Not available.
UV 0.0 out of 12
Pollen .10 out of 12
Air Quality Not available.
Flu Activity Not available.
METAR KMIE 211253Z 16003KT 4SM BR CLR M04/M06 A3029 RMK AO2 SLP264 T10441061

More Conditions Fewer Conditions

Pressure 30.31 in
Visibility 4.0 miles
Clouds Clear
Windchill 24 °F
Dew Point 21 °F
Humidity 89%
Rainfall 0.00 in
Snow Depth Not available.
UV 0.0 out of 12
Pollen .10 out of 12
Air Quality Not available.
Flu Activity Not available.
METAR KMIE 211253Z 16003KT 4SM BR CLR M04/M06 A3029 RMK AO2 SLP264 T10441061

More Conditions Fewer Conditions

10-Day Weather Forecast

Almanac

Astronomy

Dec. 21, 2014 Rise Set
Actual Time
Civil Twilight
Nautical Twilight
Astronomical Twilight
Moon
Length of Visible Light
Length of Day
Tomorrow will be .
, % of the Moon is Illuminated

Today's Extremes

State Highs State Lows

Community

WunderPhotos

Upload Photos

1,779,386 photos uploaded!

WunderBlogs® & News

Nearby

Air Quality

  Air Quality AQ Index Pollutant
Not available.

Snow Depth

Station Depth Elevation

Earthquake Activity

City Distance Mag. Time & Date
Minimum magnitude displayed is 2.5.

Coastal Water Temperatures

Place Temperature

Nearby Weather Stations